createdAt,value
2023-03-07T00:01:25.213Z,99814.56
2023-03-07T00:09:53.233Z,99811.22
2023-03-07T00:12:25.952Z,99818.78
2023-03-07T00:14:58.674Z,99808.69
2023-03-07T00:17:32.634Z,99813.44
2023-03-07T00:20:07.436Z,99809.50
2023-03-07T00:22:40.093Z,99806.72
2023-03-07T00:25:12.801Z,99809.59
2023-03-07T00:27:45.394Z,99808.75
2023-03-07T00:30:18.549Z,99811.06
2023-03-07T00:32:52.483Z,99809.53
2023-03-07T00:35:25.797Z,99803.44
2023-03-07T00:37:59.853Z,99810.38
2023-03-07T00:40:32.572Z,99797.50
2023-03-07T00:43:05.234Z,99802.63
2023-03-07T00:45:37.953Z,99806.03
2023-03-07T00:48:12.371Z,99799.38
2023-03-07T00:50:45.316Z,99802.97
2023-03-07T00:53:18.920Z,99801.78
2023-03-07T00:55:55.661Z,99801.75
2023-03-07T00:58:28.925Z,99790.41
2023-03-07T01:01:02.363Z,99786.91
2023-03-07T01:03:36.770Z,99787.84
2023-03-07T01:06:10.397Z,99784.59
2023-03-07T01:08:46.116Z,99784.56
2023-03-07T01:11:20.968Z,99784.25
2023-03-07T01:13:55.893Z,99781.47
2023-03-07T01:16:30.420Z,99784.88
2023-03-07T01:19:08.162Z,99777.59
2023-03-07T01:21:41.853Z,99776.78
2023-03-07T01:24:16.047Z,99771.34
2023-03-07T01:26:49.106Z,99774.13
2023-03-07T01:29:21.695Z,99767.84
2023-03-07T01:31:55.538Z,99769.00
2023-03-07T01:34:29.724Z,99760.84
2023-03-07T01:37:03.113Z,99760.00
2023-03-07T01:39:35.824Z,99754.19
2023-03-07T01:42:14.121Z,99750.25
2023-03-07T01:45:00.618Z,99742.47
2023-03-07T01:47:43.567Z,99753.50
2023-03-07T01:50:18.859Z,99744.88
2023-03-07T01:52:54.082Z,99746.47
2023-03-07T01:55:28.974Z,99743.25
2023-03-07T01:58:09.869Z,99733.50
2023-03-07T02:00:43.154Z,99718.72
2023-03-07T02:03:19.510Z,99729.22
2023-03-07T02:05:55.083Z,99728.34
2023-03-07T02:08:29.869Z,99717.94
2023-03-07T02:11:02.676Z,99709.78
2023-03-07T02:13:36.011Z,99718.44
2023-03-07T02:16:08.971Z,99707.38
2023-03-07T02:18:43.585Z,99708.97
2023-03-07T02:21:23.304Z,99705.84
2023-03-07T02:23:59.041Z,99704.69
2023-03-07T02:26:39.986Z,99719.94
2023-03-07T02:29:13.184Z,99705.53
2023-03-07T02:31:47.115Z,99705.19
2023-03-07T02:34:21.728Z,99701.28
2023-03-07T02:36:59.378Z,99704.38
2023-03-07T02:39:32.311Z,99702.06
2023-03-07T02:42:10.832Z,99693.13
2023-03-07T02:44:57.022Z,99698.59
2023-03-07T02:47:30.517Z,99694.97
2023-03-07T02:50:05.272Z,99695.34
2023-03-07T02:52:39.823Z,99682.69
2023-03-07T02:55:12.803Z,99681.75
2023-03-07T02:57:53.714Z,99681.75
2023-03-07T03:00:26.665Z,99674.81
2023-03-07T03:02:59.392Z,99668.63
2023-03-07T03:05:32.126Z,99675.28
2023-03-07T03:08:05.056Z,99668.97
2023-03-07T03:10:37.765Z,99671.69
2023-03-07T03:13:11.999Z,99668.53
2023-03-07T03:15:47.580Z,99673.66
2023-03-07T03:18:20.257Z,99670.16
2023-03-07T03:20:52.965Z,99670.94
2023-03-07T03:23:28.011Z,99671.81
2023-03-07T03:26:01.287Z,99671.03
2023-03-07T03:28:38.594Z,99674.91
2023-03-07T03:31:15.178Z,99683.41
2023-03-07T03:33:49.374Z,99687.59
2023-03-07T03:36:25.718Z,99678.22
2023-03-07T03:39:00.886Z,99676.38
2023-03-07T03:41:35.081Z,99672.50
2023-03-07T03:44:11.621Z,99669.38
2023-03-07T03:46:44.496Z,99671.31
2023-03-07T03:49:17.549Z,99662.28
2023-03-07T03:51:53.791Z,99652.13
2023-03-07T03:54:26.858Z,99656.75
2023-03-07T03:56:59.886Z,99657.91
2023-03-07T03:59:34.210Z,99654.44
2023-03-07T04:02:06.933Z,99659.19
2023-03-07T04:04:39.926Z,99656.00
2023-03-07T04:07:12.824Z,99666.09
2023-03-07T04:09:45.445Z,99662.19
2023-03-07T04:12:18.632Z,99666.03
2023-03-07T04:14:52.707Z,99656.34
2023-03-07T04:17:25.451Z,99656.78
2023-03-07T04:19:58.410Z,99654.03
2023-03-07T04:22:31.034Z,99653.66
2023-03-07T04:25:04.022Z,99651.34
2023-03-07T04:27:36.979Z,99646.66
2023-03-07T04:30:12.227Z,99647.44
2023-03-07T04:32:45.318Z,99636.44
2023-03-07T04:35:18.153Z,99636.50
2023-03-07T04:37:51.322Z,99632.66
2023-03-07T04:40:24.088Z,99628.75
2023-03-07T04:42:57.006Z,99635.78
2023-03-07T04:45:31.281Z,99633.41
2023-03-07T04:48:04.011Z,99636.53
2023-03-07T04:50:37.848Z,99642.31
2023-03-07T04:53:10.616Z,99637.22
2023-03-07T04:55:43.638Z,99639.50
2023-03-07T04:58:17.564Z,99644.16
2023-03-07T05:00:51.797Z,99634.88
2023-03-07T05:03:25.243Z,99636.44
2023-03-07T05:06:02.168Z,99640.41
2023-03-07T05:08:35.834Z,99632.50
2023-03-07T05:11:08.578Z,99641.91
2023-03-07T05:13:41.884Z,99638.81
2023-03-07T05:16:17.584Z,99641.13
2023-03-07T05:18:50.321Z,99650.03
2023-03-07T05:21:23.421Z,99654.28
2023-03-07T05:23:56.648Z,99655.03
2023-03-07T05:26:29.941Z,99659.31
2023-03-07T05:29:02.612Z,99654.19
2023-03-07T05:31:37.073Z,99653.47
2023-03-07T05:34:11.975Z,99658.38
2023-03-07T05:36:45.971Z,99656.50
2023-03-07T05:39:19.143Z,99652.53
2023-03-07T05:41:51.868Z,99650.19
2023-03-07T05:44:25.064Z,99644.00
2023-03-07T05:46:59.703Z,99646.22
2023-03-07T05:49:32.514Z,99656.31
2023-03-07T05:52:05.646Z,99657.84
2023-03-07T05:54:38.432Z,99662.50
2023-03-07T05:57:11.069Z,99657.38
2023-03-07T05:59:45.304Z,99649.69
2023-03-07T06:02:19.335Z,99652.41
2023-03-07T06:04:52.082Z,99651.63
2023-03-07T06:07:25.225Z,99646.88
2023-03-07T06:09:58.113Z,99655.38
2023-03-07T06:12:30.919Z,99654.59
2023-03-07T06:15:04.393Z,99654.97
2023-03-07T06:17:40.878Z,99651.88
2023-03-07T06:20:16.126Z,99647.66
2023-03-07T06:22:49.246Z,99648.38
2023-03-07T06:25:22.666Z,99658.06
2023-03-07T06:27:59.675Z,99658.81
2023-03-07T06:30:32.532Z,99655.72
2023-03-07T06:33:06.813Z,99650.38
2023-03-07T06:35:40.771Z,99650.66
2023-03-07T06:38:14.258Z,99657.66
2023-03-07T06:40:47.063Z,99657.97
2023-03-07T06:43:19.655Z,99652.91
2023-03-07T06:45:52.610Z,99645.56
2023-03-07T06:48:27.770Z,99645.91
2023-03-07T06:51:00.739Z,99658.81
2023-03-07T06:53:33.501Z,99651.28
2023-03-07T06:56:08.072Z,99659.06
2023-03-07T06:58:41.680Z,99654.84
2023-03-07T07:01:18.019Z,99656.72
2023-03-07T07:03:53.652Z,99667.44
2023-03-07T07:06:26.362Z,99673.78
2023-03-07T07:08:59.556Z,99673.81
2023-03-07T07:11:36.372Z,99670.72
2023-03-07T07:14:10.579Z,99668.38
2023-03-07T07:16:44.551Z,99682.72
2023-03-07T07:19:18.637Z,99682.31
2023-03-07T07:21:52.666Z,99680.41
2023-03-07T07:24:25.313Z,99678.47
2023-03-07T07:26:59.187Z,99687.00
2023-03-07T07:29:32.073Z,99687.75
2023-03-07T07:32:05.250Z,99690.91
2023-03-07T07:34:39.821Z,99690.13
2023-03-07T07:37:13.420Z,99686.25
2023-03-07T07:39:46.034Z,99688.94
2023-03-07T07:42:18.883Z,99694.09
2023-03-07T07:45:06.445Z,99694.75
2023-03-07T07:47:39.327Z,99698.75
2023-03-07T07:50:14.191Z,99697.88
2023-03-07T07:52:47.972Z,99697.03
2023-03-07T07:55:20.566Z,99704.78
2023-03-07T07:57:53.308Z,99707.13
2023-03-07T08:00:26.258Z,99706.78
2023-03-07T08:02:59.581Z,99703.63
2023-03-07T08:05:33.519Z,99712.66
2023-03-07T08:08:06.310Z,99704.78
2023-03-07T08:10:43.045Z,99703.22
2023-03-07T08:13:16.623Z,99709.06
2023-03-07T08:15:49.181Z,99691.97
2023-03-07T08:18:22.239Z,99703.22
2023-03-07T08:21:00.050Z,99698.56
2023-03-07T08:23:32.682Z,99692.66
2023-03-07T08:26:06.333Z,99696.16
2023-03-07T08:28:39.108Z,99695.03
2023-03-07T08:31:13.127Z,99700.47
2023-03-07T08:33:47.300Z,99697.78
2023-03-07T08:36:21.532Z,99690.81
2023-03-07T08:38:54.241Z,99693.09
2023-03-07T08:41:26.959Z,99693.19
2023-03-07T08:43:59.538Z,99700.97
2023-03-07T08:46:32.247Z,99688.47
2023-03-07T08:49:05.064Z,99690.81
2023-03-07T08:51:41.653Z,99686.16
2023-03-07T08:54:14.409Z,99688.53
2023-03-07T08:56:46.946Z,99690.88
2023-03-07T08:59:19.447Z,99698.41
2023-03-07T09:01:52.202Z,99700.41
2023-03-07T09:04:25.401Z,99695.75
2023-03-07T09:07:01.512Z,99698.09
2023-03-07T09:09:34.492Z,99699.66
2023-03-07T09:12:07.540Z,99706.72
2023-03-07T09:14:40.306Z,99701.75
2023-03-07T09:17:14.028Z,99702.19
2023-03-07T09:19:47.074Z,99703.84
2023-03-07T09:22:21.015Z,99709.22
2023-03-07T09:24:53.635Z,99711.94
2023-03-07T09:27:26.273Z,99713.88
2023-03-07T09:29:58.852Z,99714.81
2023-03-07T09:32:32.897Z,99714.41
2023-03-07T09:35:05.964Z,99706.75
2023-03-07T09:37:39.946Z,99706.34
2023-03-07T09:40:17.035Z,99704.75
2023-03-07T09:42:55.860Z,99705.53
2023-03-07T09:45:43.737Z,99702.56
2023-03-07T09:48:43.786Z,99704.03
2023-03-07T09:51:18.368Z,99711.78
2023-03-07T09:53:54.164Z,99716.16
2023-03-07T09:56:30.054Z,99710.63
2023-03-07T09:59:13.709Z,99715.50
2023-03-07T10:01:56.609Z,99707.72
2023-03-07T10:04:35.423Z,99713.09
2023-03-07T10:07:10.589Z,99712.56
2023-03-07T10:09:45.229Z,99718.19
2023-03-07T10:12:27.028Z,99702.66
2023-03-07T10:15:06.950Z,99701.22
2023-03-07T10:17:49.257Z,99697.81
2023-03-07T10:20:25.243Z,99709.94
2023-03-07T10:23:02.289Z,99709.53
2023-03-07T10:25:41.874Z,99699.09
2023-03-07T10:28:20.131Z,99710.41
2023-03-07T10:30:55.745Z,99709.16
2023-03-07T10:33:30.101Z,99719.34
2023-03-07T10:36:07.235Z,99721.38
2023-03-07T10:38:45.185Z,99725.59
2023-03-07T10:41:21.514Z,99720.22
2023-03-07T10:43:54.990Z,99718.66
2023-03-07T10:46:30.184Z,99714.00
2023-03-07T10:49:10.424Z,99719.47
2023-03-07T10:51:52.089Z,99720.28
2023-03-07T10:54:30.270Z,99722.66
2023-03-07T10:57:08.452Z,99721.47
2023-03-07T10:59:43.618Z,99717.97
2023-03-07T11:02:31.348Z,99709.81
2023-03-07T11:05:05.078Z,99708.56
2023-03-07T11:07:37.791Z,99710.97
2023-03-07T11:10:25.747Z,99716.03
2023-03-07T11:12:59.672Z,99709.81
2023-03-07T11:15:32.333Z,99714.84
2023-03-07T11:18:06.364Z,99716.81
2023-03-07T11:20:48.639Z,99716.41
2023-03-07T11:23:23.385Z,99721.88
2023-03-07T11:25:57.007Z,99721.91
2023-03-07T11:28:33.402Z,99727.00
2023-03-07T11:31:13.167Z,99730.56
2023-03-07T11:33:59.155Z,99736.00
2023-03-07T11:36:33.188Z,99734.44
2023-03-07T11:39:12.070Z,99732.53
2023-03-07T11:41:47.403Z,99733.28
2023-03-07T11:44:26.947Z,99735.94
2023-03-07T11:47:08.235Z,99734.75
2023-03-07T11:49:45.417Z,99746.00
2023-03-07T11:52:31.505Z,99740.94
2023-03-07T11:55:12.207Z,99739.78
2023-03-07T11:57:52.631Z,99749.53
2023-03-07T12:00:32.368Z,99758.44
2023-03-07T12:03:17.401Z,99751.44
2023-03-07T12:06:02.206Z,99750.69
2023-03-07T12:08:41.943Z,99754.56
2023-03-07T12:11:30.040Z,99759.63
2023-03-07T12:14:09.813Z,99758.44
2023-03-07T12:16:49.733Z,99749.91
2023-03-07T12:19:32.813Z,99755.34
2023-03-07T12:22:26.538Z,99756.81
2023-03-07T12:25:24.760Z,99753.75
2023-03-07T12:28:03.152Z,99751.47
2023-03-07T12:30:38.569Z,99758.44
2023-03-07T12:33:18.623Z,99753.41
2023-03-07T12:35:54.632Z,99761.59
2023-03-07T12:38:30.218Z,99754.63
2023-03-07T12:41:05.722Z,99770.97
2023-03-07T12:43:42.161Z,99767.63
2023-03-07T12:58:23.303Z,99742.41
2023-03-07T13:00:59.161Z,99739.69
2023-03-07T13:03:38.895Z,99738.81
2023-03-07T13:06:14.844Z,99729.47
2023-03-07T13:08:48.677Z,99743.81
2023-03-07T13:11:22.910Z,99733.84
2023-03-07T13:13:58.430Z,99739.28
2023-03-07T13:16:36.557Z,99742.41
2023-03-07T13:19:28.042Z,99741.25
2023-03-07T13:22:00.695Z,99732.84
2023-03-07T13:24:34.904Z,99735.94
2023-03-07T13:27:15.317Z,99752.31
2023-03-07T13:30:06.885Z,99749.97
2023-03-07T13:32:58.165Z,99751.53
2023-03-07T13:35:46.627Z,99762.41
2023-03-07T13:38:31.708Z,99760.97
2023-03-07T13:41:11.733Z,99766.41
2023-03-07T13:44:01.976Z,99765.63
2023-03-07T13:46:51.152Z,99769.19
2023-03-07T13:49:47.526Z,99766.78
2023-03-07T13:52:30.205Z,99772.22
2023-03-07T13:55:04.315Z,99774.53
2023-03-07T13:57:41.625Z,99779.25
2023-03-07T14:00:24.545Z,99785.69
2023-03-07T14:02:57.618Z,99788.75
2023-03-07T14:05:32.906Z,99787.56
2023-03-07T14:08:11.046Z,99788.81
2023-03-07T14:10:45.772Z,99779.47
2023-03-07T14:13:39.393Z,99783.31
2023-03-07T14:16:20.160Z,99781.72
2023-03-07T14:18:58.719Z,99776.56
2023-03-07T14:21:39.292Z,99778.63
2023-03-07T14:24:24.020Z,99786.78
2023-03-07T14:26:57.653Z,99788.34
2023-03-07T14:29:31.115Z,99787.50
2023-03-07T14:32:03.921Z,99784.84
2023-03-07T14:34:37.818Z,99790.31
2023-03-07T14:37:13.273Z,99787.66
2023-03-07T14:39:53.023Z,99788.75
2023-03-07T14:42:29.053Z,99793.38
2023-03-07T14:45:08.487Z,99800.09
2023-03-07T14:47:53.021Z,99784.53
2023-03-07T14:50:27.710Z,99788.22
2023-03-07T14:53:03.678Z,99795.69
2023-03-07T14:55:39.751Z,99794.63
2023-03-07T14:58:17.156Z,99796.53
2023-03-07T15:00:58.416Z,99788.66
2023-03-07T15:03:39.561Z,99790.97
2023-03-07T15:06:14.797Z,99789.00
2023-03-07T15:08:49.202Z,99782.88
2023-03-07T15:11:30.644Z,99787.19
2023-03-07T15:14:04.937Z,99793.78
2023-03-07T15:16:38.869Z,99796.19
2023-03-07T15:19:15.391Z,99801.69
2023-03-07T15:21:49.058Z,99798.50
2023-03-07T15:25:04.751Z,99803.50
2023-03-07T15:27:38.961Z,99805.09
2023-03-07T15:30:19.806Z,99805.75
2023-03-07T15:33:04.017Z,99802.38
2023-03-07T15:35:36.689Z,99808.50
2023-03-07T15:38:14.749Z,99805.84
2023-03-07T15:40:47.797Z,99803.44
2023-03-07T15:43:28.617Z,99798.50
2023-03-07T15:50:01.912Z,99807.41
2023-03-07T15:52:36.086Z,99802.19
2023-03-07T15:55:17.667Z,99805.66
2023-03-07T15:57:51.600Z,99815.81
2023-03-07T16:00:28.803Z,99811.22
2023-03-07T16:03:19.396Z,99817.44
2023-03-07T16:05:52.541Z,99820.44
2023-03-07T16:08:25.258Z,99811.13
2023-03-07T16:10:59.887Z,99819.56
2023-03-07T16:13:33.686Z,99814.75
2023-03-07T16:16:15.597Z,99820.25
2023-03-07T16:18:48.614Z,99824.03
2023-03-07T16:21:21.755Z,99819.31
2023-03-07T16:23:54.287Z,99821.72
2023-03-07T16:26:27.229Z,99828.72
2023-03-07T16:29:00.654Z,99826.31
2023-03-07T16:31:34.646Z,99827.16
2023-03-07T16:34:07.349Z,99817.03
2023-03-07T16:36:40.127Z,99829.00
2023-03-07T16:39:13.507Z,99827.84
2023-03-07T16:41:48.575Z,99831.66
2023-03-07T16:44:22.343Z,99831.66
2023-03-07T16:47:00.016Z,99839.47
2023-03-07T16:49:32.652Z,99840.97
2023-03-07T16:52:06.743Z,99845.22
2023-03-07T16:54:39.569Z,99841.53
2023-03-07T16:57:13.710Z,99845.53
2023-03-07T16:59:47.755Z,99849.38
2023-03-07T17:02:22.678Z,99847.06
2023-03-07T17:04:55.490Z,99853.66
2023-03-07T17:07:28.344Z,99862.59
2023-03-07T17:10:01.141Z,99870.28
2023-03-07T17:12:34.415Z,99865.63
2023-03-07T17:15:07.775Z,99875.03
2023-03-07T17:17:41.863Z,99878.47
2023-03-07T17:20:14.954Z,99875.31
2023-03-07T17:22:47.692Z,99876.47
2023-03-07T17:25:20.628Z,99872.97
2023-03-07T17:27:55.134Z,99882.63
2023-03-07T17:30:28.894Z,99874.09
2023-03-07T17:33:02.796Z,99883.38
2023-03-07T17:35:35.520Z,99886.47
2023-03-07T17:38:08.301Z,99890.69
2023-03-07T17:40:41.109Z,99890.25
2023-03-07T17:43:14.234Z,99892.56
2023-03-07T17:45:46.752Z,99904.94
2023-03-07T17:48:24.879Z,99912.63
2023-03-07T17:50:57.622Z,99925.97
2023-03-07T17:53:30.741Z,99921.75
2023-03-07T17:56:07.656Z,99927.41
2023-03-07T17:58:40.952Z,99916.13
2023-03-07T18:01:19.506Z,99918.53
2023-03-07T18:03:56.440Z,99928.84
2023-03-07T18:06:38.419Z,99925.34
2023-03-07T18:09:13.744Z,99935.03
2023-03-07T18:11:47.608Z,99947.16
2023-03-07T18:14:23.121Z,99938.53
2023-03-07T18:16:55.807Z,99935.44
2023-03-07T18:19:30.241Z,99935.31
2023-03-07T18:22:02.841Z,99928.44
2023-03-07T18:24:35.847Z,99931.84
2023-03-07T18:27:10.191Z,99932.88
2023-03-07T18:29:42.988Z,99939.44
2023-03-07T18:32:15.725Z,99932.59
2023-03-07T18:34:52.236Z,99934.78
2023-03-07T18:37:24.908Z,99925.84
2023-03-07T18:39:57.797Z,99938.59
2023-03-07T18:42:30.564Z,99942.66
2023-03-07T18:45:03.378Z,99947.31
2023-03-07T18:47:36.028Z,99946.63
2023-03-07T18:50:12.461Z,99942.59
2023-03-07T18:52:45.165Z,99948.84
2023-03-07T18:55:18.093Z,99950.31
2023-03-07T18:57:50.816Z,99955.69
2023-03-07T19:00:24.013Z,99956.91
2023-03-07T19:02:56.634Z,99961.63
2023-03-07T19:05:30.823Z,99965.00
2023-03-07T19:08:03.394Z,99969.56
2023-03-07T19:10:37.422Z,99967.97
2023-03-07T19:13:10.431Z,99967.28
2023-03-07T19:15:44.958Z,99962.19
2023-03-07T19:18:17.686Z,99961.34
2023-03-07T19:20:52.244Z,99960.97
2023-03-07T19:23:24.897Z,99962.47
2023-03-07T19:25:57.599Z,99969.50
2023-03-07T19:28:30.191Z,99964.84
2023-03-07T19:31:07.191Z,99966.63
2023-03-07T19:33:39.974Z,99967.13
2023-03-07T19:36:14.700Z,99965.47
2023-03-07T19:38:48.224Z,99968.19
2023-03-07T19:41:21.978Z,99973.19
2023-03-07T19:43:56.013Z,99967.75
2023-03-07T19:46:28.723Z,99963.81
2023-03-07T19:49:01.270Z,99975.03
2023-03-07T19:51:35.664Z,99970.38
2023-03-07T19:54:09.133Z,99981.97
2023-03-07T19:56:42.652Z,99979.41
2023-03-07T19:59:15.383Z,99973.03
2023-03-07T20:01:48.281Z,99978.91
2023-03-07T20:04:21.006Z,99976.13
2023-03-07T20:06:55.050Z,99976.91
2023-03-07T20:09:27.879Z,99971.38
2023-03-07T20:12:00.776Z,99974.81
2023-03-07T20:14:33.353Z,99978.84
2023-03-07T20:17:06.254Z,99982.19
2023-03-07T20:19:39.140Z,99980.31
2023-03-07T20:22:13.062Z,99979.16
2023-03-07T20:24:45.804Z,99972.00
2023-03-07T20:27:21.777Z,99982.44
2023-03-07T20:29:54.320Z,99982.19
2023-03-07T20:32:26.919Z,99984.00
2023-03-07T20:35:03.402Z,99982.00
2023-03-07T20:37:37.492Z,99979.56
2023-03-07T20:40:10.842Z,99983.47
2023-03-07T20:42:43.484Z,99980.34
2023-03-07T20:45:16.009Z,99975.00
2023-03-07T20:47:48.613Z,99975.00
2023-03-07T20:50:21.199Z,99976.91
2023-03-07T20:52:55.183Z,99969.06
2023-03-07T20:55:29.160Z,99978.34
2023-03-07T20:58:01.784Z,99973.25
2023-03-07T21:00:34.648Z,99974.84
2023-03-07T21:03:09.877Z,99977.97
2023-03-07T21:05:42.544Z,99980.69
2023-03-07T21:08:16.789Z,99978.34
2023-03-07T21:10:58.067Z,99986.50
2023-03-07T21:13:30.981Z,99981.56
2023-03-07T21:16:04.485Z,99984.47
2023-03-07T21:18:37.473Z,99986.81
2023-03-07T21:21:11.240Z,99985.59
2023-03-07T21:23:45.561Z,99989.81
2023-03-07T21:26:19.192Z,99995.16
2023-03-07T21:28:52.087Z,99994.91
2023-03-07T21:31:25.434Z,100000.69
2023-03-07T21:33:58.804Z,100001.72
2023-03-07T21:36:32.314Z,100000.94
2023-03-07T21:39:08.166Z,99999.63
2023-03-07T21:41:40.885Z,100000.16
2023-03-07T21:44:14.384Z,99998.59
2023-03-07T21:46:46.978Z,100002.34
2023-03-07T21:49:19.555Z,99994.56
2023-03-07T21:51:52.103Z,99990.63
2023-03-07T21:54:26.188Z,100000.06
2023-03-07T21:56:58.747Z,100002.00
2023-03-07T21:59:33.506Z,99999.56
2023-03-07T22:02:06.105Z,99989.38
2023-03-07T22:04:38.862Z,99994.91
2023-03-07T22:07:11.434Z,99997.78
2023-03-07T22:09:45.498Z,99993.38
2023-03-07T22:12:18.112Z,99993.59
2023-03-07T22:14:52.644Z,99991.31
2023-03-07T22:17:25.319Z,100000.59
2023-03-07T22:19:58.117Z,99992.88
2023-03-07T22:22:30.729Z,100002.41
2023-03-07T22:25:05.121Z,100005.38
2023-03-07T22:27:38.307Z,100008.00
2023-03-07T22:30:11.462Z,100005.03
2023-03-07T22:32:44.897Z,100004.97
2023-03-07T22:35:17.549Z,100018.97
2023-03-07T22:37:50.156Z,100020.34
2023-03-07T22:40:24.070Z,100020.34
2023-03-07T22:42:56.739Z,100009.13
2023-03-07T22:45:29.481Z,100017.81
2023-03-07T22:48:02.010Z,100007.03
2023-03-07T22:50:34.628Z,100007.03
2023-03-07T22:53:07.164Z,100009.75
2023-03-07T22:55:42.921Z,100011.47
2023-03-07T22:58:15.444Z,100002.31
2023-03-07T23:00:48.192Z,99994.78
2023-03-07T23:03:20.735Z,99994.06
2023-03-07T23:05:54.122Z,99986.28
2023-03-07T23:08:26.643Z,99988.13
2023-03-07T23:11:02.433Z,99987.34
2023-03-07T23:13:35.283Z,99984.63
2023-03-07T23:16:09.881Z,99986.44
2023-03-07T23:18:43.277Z,99987.22
2023-03-07T23:21:17.401Z,99982.16
2023-03-07T23:23:50.816Z,99988.63
2023-03-07T23:26:26.114Z,99973.91
2023-03-07T23:28:58.929Z,99971.66
2023-03-07T23:31:32.388Z,99969.97
2023-03-07T23:34:06.112Z,99971.56
2023-03-07T23:36:38.771Z,99968.50
2023-03-07T23:39:11.430Z,99974.88
2023-03-07T23:41:46.217Z,99978.03
2023-03-07T23:44:20.936Z,99984.25
2023-03-07T23:46:53.577Z,99976.00
2023-03-07T23:49:26.132Z,99983.00
2023-03-07T23:52:00.080Z,99976.44
2023-03-07T23:54:32.636Z,99984.16
2023-03-07T23:57:06.819Z,99969.91
2023-03-07T23:59:39.295Z,99971.72
